Time;durP1;ratioP1;P1;durP2;ratioP2;P2;SDS_P1;SDS_P2;PMS_P1;PMS_P2;Temp;Humidity;BMP_temperature;BMP_pressure;BME280_temperature;BME280_humidity;BME280_pressure;Samples;Min_cycle;Max_cycle;Signal;HPM_P1;HPM_P2
2022/09/28 00:01:12;;;;;;;10.60;7.40;;;;;;;9.97;87.46;99641.00;5022258;28;20053;-74
2022/09/28 00:03:38;;;;;;;9.90;8.30;;;;;;;9.95;87.11;99645.25;5038707;28;20029;-74
2022/09/28 00:06:05;;;;;;;8.80;7.80;;;;;;;9.91;87.29;99644.34;5036873;28;20094;-74
2022/09/28 00:08:31;;;;;;;10.38;8.55;;;;;;;9.93;87.47;99644.38;5037889;28;20029;-74
2022/09/28 00:10:57;;;;;;;11.68;8.40;;;;;;;9.92;87.62;99637.50;5041516;28;20033;-74
2022/09/28 00:13:23;;;;;;;10.20;8.75;;;;;;;9.89;87.72;99632.38;5037301;28;20344;-74
2022/09/28 00:16:09;;;;;;;10.20;8.18;;;;;;;9.98;87.64;99635.00;5039869;28;20090;-74
2022/09/28 00:18:35;;;;;;;11.55;8.38;;;;;;;9.86;88.08;99630.59;5040359;28;20538;-74
2022/09/28 00:21:13;;;;;;;10.52;8.13;;;;;;;9.86;88.40;99624.59;5039326;28;20028;-74
2022/09/28 00:26:28;;;;;;;10.25;8.45;;;;;;;9.86;88.50;99620.34;5024668;28;20991;-74
2022/09/28 00:28:57;;;;;;;10.20;7.63;;;;;;;9.84;88.42;99616.03;5023975;28;20025;-74
2022/09/28 00:31:23;;;;;;;11.07;7.80;;;;;;;9.90;88.03;99616.09;5037311;28;20032;-74
2022/09/28 00:33:55;;;;;;;11.75;7.97;;;;;;;9.87;88.54;99616.06;5038899;28;20048;-73
2022/09/28 00:36:21;;;;;;;10.88;7.50;;;;;;;9.86;88.00;99612.63;5039534;28;20369;-74
2022/09/28 00:38:46;;;;;;;12.73;7.35;;;;;;;9.88;88.30;99610.06;5040664;28;20078;-74
2022/09/28 00:41:13;;;;;;;9.68;7.28;;;;;;;9.85;87.84;99612.63;5018914;28;20025;-74
2022/09/28 00:43:38;;;;;;;10.57;7.70;;;;;;;9.89;87.59;99611.81;5037266;28;20075;-74
2022/09/28 00:46:13;;;;;;;11.45;7.20;;;;;;;9.87;87.79;99609.22;5037579;28;20048;-74
2022/09/28 00:48:45;;;;;;;10.10;7.13;;;;;;;9.83;88.27;99609.19;5036678;28;21868;-74
2022/09/28 00:51:11;;;;;;;9.02;7.10;;;;;;;9.83;87.95;99612.59;5037894;28;20032;-74
2022/09/28 00:53:39;;;;;;;8.93;6.63;;;;;;;9.82;88.07;99608.28;5018449;28;20033;-74
2022/09/28 00:56:10;;;;;;;9.05;6.53;;;;;;;9.84;88.51;99605.78;5034755;28;21292;-74
2022/09/28 00:58:40;;;;;;;8.45;6.72;;;;;;;9.84;88.50;99603.19;5036916;28;20043;-74
2022/09/28 01:01:06;;;;;;;9.68;6.43;;;;;;;9.84;88.31;99605.78;5037353;28;20673;-74
2022/09/28 01:03:32;;;;;;;9.15;6.57;;;;;;;9.85;88.11;99613.47;5029870;28;20029;-74
2022/09/28 01:06:01;;;;;;;8.40;6.35;;;;;;;9.86;87.91;99607.50;5021702;28;20427;-74
2022/09/28 01:08:30;;;;;;;6.78;5.82;;;;;;;9.86;88.42;99604.06;5035591;28;20028;-74
2022/09/28 01:10:58;;;;;;;8.80;6.13;;;;;;;9.84;87.72;99598.06;5022687;28;20037;-74
2022/09/28 01:13:24;;;;;;;7.78;5.90;;;;;;;9.83;87.80;99604.91;5036055;28;20074;-74
2022/09/28 01:16:11;;;;;;;8.77;6.00;;;;;;;9.93;87.71;99603.28;5034210;28;20036;-74
2022/09/28 01:18:46;;;;;;;6.72;5.95;;;;;;;9.90;87.15;99604.13;5040170;28;20055;-74
2022/09/28 01:21:19;;;;;;;8.25;5.85;;;;;;;9.91;87.54;99603.28;5033264;28;20029;-74
2022/09/28 01:24:00;;;;;;;7.63;5.68;;;;;;;9.85;87.11;99604.91;5038712;28;20410;-74
2022/09/28 01:26:31;;;;;;;7.53;5.80;;;;;;;9.88;87.22;99599.78;5037821;28;20036;-74
2022/09/28 01:29:23;;;;;;;10.60;5.72;;;;;;;9.91;87.15;99608.41;5038578;28;20037;-74
2022/09/28 01:31:55;;;;;;;8.63;6.10;;;;;;;9.86;87.17;99609.19;5036146;28;20035;-74
2022/09/28 01:34:30;;;;;;;8.35;6.03;;;;;;;9.83;87.39;99609.19;5017882;28;20476;-74
2022/09/28 01:37:00;;;;;;;7.38;6.10;;;;;;;9.75;87.57;99610.78;5020025;28;20492;-74
2022/09/28 01:39:34;;;;;;;8.15;5.80;;;;;;;9.77;87.21;99609.09;5034879;28;20040;-73
2022/09/28 01:42:04;;;;;;;8.50;6.38;;;;;;;9.82;87.68;99612.56;5034122;28;20061;-74
2022/09/28 01:44:38;;;;;;;10.10;6.32;;;;;;;9.73;87.33;99610.78;5032279;28;20033;-74
2022/09/28 01:47:10;;;;;;;7.60;6.32;;;;;;;9.75;87.97;99610.78;5036283;28;20094;-74
2022/09/28 01:49:41;;;;;;;8.10;6.38;;;;;;;9.74;87.74;99611.63;5033621;28;20033;-74
2022/09/28 01:52:11;;;;;;;9.52;6.72;;;;;;;9.76;87.77;99612.50;5034750;28;20083;-74
2022/09/28 01:54:42;;;;;;;8.25;7.10;;;;;;;9.75;87.84;99610.78;5032238;28;20029;-74
2022/09/28 01:57:18;;;;;;;11.40;7.30;;;;;;;9.79;88.27;99608.28;5032837;28;20040;-74
2022/09/28 01:59:54;;;;;;;9.07;7.20;;;;;;;9.77;88.04;99606.53;5033945;28;20146;-74
2022/09/28 02:02:25;;;;;;;9.32;7.30;;;;;;;9.78;87.93;99613.41;5034521;28;20042;-74
2022/09/28 02:04:56;;;;;;;11.75;7.93;;;;;;;9.73;88.48;99608.22;5029585;28;20021;-74
2022/09/28 02:07:30;;;;;;;9.55;7.40;;;;;;;9.72;88.44;99605.63;5031115;28;20037;-74
2022/09/28 02:10:04;;;;;;;9.70;7.47;;;;;;;9.73;88.59;99609.91;5034725;28;20376;-74
2022/09/28 02:12:40;;;;;;;9.70;7.72;;;;;;;9.75;88.78;99603.09;5032237;28;20033;-74
2022/09/28 02:15:45;;;;;;;9.10;7.75;;;;;;;9.82;88.45;99605.72;5017255;28;20020;-74
2022/09/28 02:18:12;;;;;;;11.68;8.13;;;;;;;9.78;88.64;99608.28;5030111;28;20098;-74
2022/09/28 02:20:41;;;;;;;11.82;8.23;;;;;;;9.76;89.19;99600.53;5031406;28;20063;-74
2022/09/28 02:23:08;;;;;;;9.80;8.40;;;;;;;9.79;88.75;99602.28;5036216;28;20068;-74
2022/09/28 02:25:41;;;;;;;11.32;8.73;;;;;;;9.78;88.56;99608.28;5036623;28;20032;-74
2022/09/28 02:28:10;;;;;;;11.00;8.10;;;;;;;9.74;88.75;99609.06;5033169;28;20033;-74
2022/09/28 02:30:38;;;;;;;9.95;8.27;;;;;;;9.73;88.82;99607.34;5034571;28;20051;-74
2022/09/28 02:33:11;;;;;;;15.00;8.83;;;;;;;9.72;88.74;99603.06;5014797;28;20049;-74
2022/09/28 02:35:39;;;;;;;10.93;8.25;;;;;;;9.68;88.75;99604.72;5034976;28;20374;-74
2022/09/28 02:38:04;;;;;;;9.02;7.43;;;;;;;9.74;89.28;99601.38;5036737;28;20495;-74
2022/09/28 02:40:34;;;;;;;10.77;7.65;;;;;;;9.77;88.52;99604.84;5012840;28;20040;-74
2022/09/28 02:43:08;;;;;;;11.30;7.57;;;;;;;9.73;88.43;99607.34;5032886;28;20060;-74
2022/09/28 02:45:45;;;;;;;9.60;7.60;;;;;;;9.79;88.19;99607.41;5034077;28;20041;-74
2022/09/28 02:48:34;;;;;;;9.60;7.70;;;;;;;9.78;87.90;99610.84;5033421;28;20048;-73
2022/09/28 02:51:30;;;;;;;16.48;7.63;;;;;;;9.79;87.81;99605.72;5038964;28;20024;-74
2022/09/28 02:53:58;;;;;;;11.30;6.68;;;;;;;9.74;87.81;99604.78;5018271;28;20079;-74
2022/09/28 02:56:24;;;;;;;9.50;7.43;;;;;;;9.74;87.47;99611.63;5033804;28;20033;-74
2022/09/28 02:59:04;;;;;;;9.10;7.00;;;;;;;9.75;88.18;99605.66;5037510;28;20048;-73
2022/09/28 03:01:38;;;;;;;10.50;6.85;;;;;;;9.73;87.96;99612.47;5033679;28;20110;-73
2022/09/28 03:04:20;;;;;;;10.25;7.03;;;;;;;9.68;88.23;99608.16;5034686;28;20445;-73
2022/09/28 03:07:04;;;;;;;8.60;6.15;;;;;;;9.74;88.03;99612.50;5033896;28;20087;-73
2022/09/28 03:09:41;;;;;;;9.52;6.18;;;;;;;9.73;88.27;99612.47;5033070;28;20510;-74
2022/09/28 03:12:13;;;;;;;8.77;6.10;;;;;;;9.72;88.12;99601.34;5021381;28;20379;-74
2022/09/28 03:14:39;;;;;;;8.75;5.85;;;;;;;9.76;87.35;99607.38;5034815;28;20491;-74
2022/09/28 03:17:04;;;;;;;7.63;5.47;;;;;;;9.72;87.58;99608.19;5037475;28;20040;-74
2022/09/28 03:19:33;;;;;;;10.07;5.72;;;;;;;9.65;87.78;99607.28;5036737;28;20030;-73
2022/09/28 03:21:59;;;;;;;8.00;5.63;;;;;;;9.65;87.68;99607.28;5020271;28;20137;-73
2022/09/28 03:24:25;;;;;;;9.77;5.15;;;;;;;9.65;87.59;99608.13;5040389;28;20033;-73
2022/09/28 03:26:50;;;;;;;6.47;4.60;;;;;;;9.63;87.41;99603.81;5024293;28;20025;-73
2022/09/28 03:29:16;;;;;;;10.88;4.35;;;;;;;9.67;87.72;99601.28;5043972;28;20094;-73
2022/09/28 03:31:43;;;;;;;6.07;4.10;;;;;;;9.64;87.41;99608.09;5040689;28;20037;-73
2022/09/28 03:34:08;;;;;;;5.97;4.20;;;;;;;9.60;87.95;99607.22;5027641;28;20159;-73
2022/09/28 03:36:34;;;;;;;7.38;3.88;;;;;;;9.63;88.10;99603.81;5039416;28;20116;-73
2022/09/28 03:38:59;;;;;;;5.85;3.60;;;;;;;9.60;88.20;99617.47;5036606;28;20498;-74
2022/09/28 03:41:26;;;;;;;7.75;4.07;;;;;;;9.63;88.09;99611.50;5041183;28;20028;-74
2022/09/28 03:43:52;;;;;;;5.43;3.70;;;;;;;9.61;88.96;99621.75;5023726;28;20040;-74
2022/09/28 03:46:17;;;;;;;5.70;3.65;;;;;;;9.62;88.26;99609.78;5026028;28;20037;-74
2022/09/28 03:48:42;;;;;;;6.78;3.50;;;;;;;9.59;88.21;99613.19;5036779;28;20428;-74
2022/09/28 03:51:09;;;;;;;6.50;3.20;;;;;;;9.64;88.43;99614.06;5042295;28;20033;-74
2022/09/28 03:53:35;;;;;;;6.00;2.78;;;;;;;9.63;88.24;99617.50;5039211;28;20017;-74
2022/09/28 03:56:05;;;;;;;5.45;2.97;;;;;;;9.58;88.24;99619.13;5025124;28;20029;-74
2022/09/28 03:58:31;;;;;;;6.00;2.80;;;;;;;9.54;88.43;99619.97;5019855;28;20022;-74
2022/09/28 04:01:08;;;;;;;6.25;2.88;;;;;;;9.65;88.44;99614.97;5040308;28;20079;-74
2022/09/28 04:03:34;;;;;;;4.85;2.75;;;;;;;9.60;88.97;99619.19;5040978;28;20049;-74
2022/09/28 04:06:00;;;;;;;3.78;2.50;;;;;;;9.63;88.86;99625.19;5042179;28;20068;-74
2022/09/28 04:08:25;;;;;;;5.95;2.47;;;;;;;9.63;88.75;99625.19;5039625;28;20033;-74
2022/09/28 04:10:50;;;;;;;5.15;2.35;;;;;;;9.59;88.98;99618.31;5039683;28;20475;-73
2022/09/28 04:13:16;;;;;;;4.47;2.50;;;;;;;9.65;88.38;99620.09;5011122;28;20037;-73
2022/09/28 04:15:42;;;;;;;3.70;1.98;;;;;;;9.50;88.84;99600.22;4993209;28;20032;-73
2022/09/28 04:18:12;;;;;;;5.63;2.13;;;;;;;9.60;88.99;99612.34;5005887;28;20052;-74
2022/09/28 04:20:40;;;;;;;4.47;2.10;;;;;;;9.58;88.73;99615.72;5014011;28;20033;-74
2022/09/28 04:23:05;;;;;;;3.75;1.90;;;;;;;9.61;88.71;99613.19;5041156;28;20124;-74
2022/09/28 04:25:31;;;;;;;3.97;2.03;;;;;;;9.60;88.52;99614.06;5039193;28;20473;-73
2022/09/28 04:30:40;;;;;;;3.95;2.00;;;;;;;9.57;88.22;99598.59;5038471;28;20139;-73
2022/09/28 04:33:05;;;;;;;3.70;1.90;;;;;;;9.60;88.50;99607.22;5025854;28;20530;-73
2022/09/28 04:35:31;;;;;;;7.03;2.20;;;;;;;9.56;88.27;99595.19;5042564;28;20052;-73
2022/09/28 04:37:56;;;;;;;5.50;2.05;;;;;;;9.59;88.02;99599.50;5040183;28;20029;-73
2022/09/28 04:40:22;;;;;;;4.43;1.80;;;;;;;9.57;87.87;99598.59;5043590;28;20095;-74
2022/09/28 04:42:54;;;;;;;3.40;1.92;;;;;;;9.60;87.76;99601.22;5027506;28;20041;-74
2022/09/28 04:45:20;;;;;;;5.07;1.83;;;;;;;9.57;87.67;99606.28;5043552;28;20056;-74
2022/09/28 04:47:46;;;;;;;4.82;1.80;;;;;;;9.48;87.58;99607.06;5025403;28;20463;-74
2022/09/28 04:50:11;;;;;;;3.15;1.45;;;;;;;9.49;87.52;99613.06;5042437;28;20457;-75
2022/09/28 04:52:36;;;;;;;3.70;1.40;;;;;;;9.47;87.45;99618.19;5026749;28;20032;-75
2022/09/28 04:55:02;;;;;;;2.40;1.40;;;;;;;9.48;87.52;99631.88;5044554;28;20053;-75
2022/09/28 04:57:28;;;;;;;2.97;1.27;;;;;;;9.44;87.24;99630.94;5036950;28;20051;-75
2022/09/28 04:59:53;;;;;;;2.53;1.20;;;;;;;9.41;87.47;99636.06;5036346;28;20041;-75
2022/09/28 05:02:19;;;;;;;2.08;1.23;;;;;;;9.43;87.78;99636.06;5037474;28;20581;-75
2022/09/28 05:04:44;;;;;;;2.50;1.40;;;;;;;9.40;87.80;99629.16;5019372;28;20025;-75
2022/09/28 05:07:10;;;;;;;2.80;1.20;;;;;;;9.39;87.98;99630.03;5042172;28;20037;-76
2022/09/28 05:09:35;;;;;;;2.78;1.30;;;;;;;9.39;88.36;99647.97;5038197;28;21446;-75
2022/09/28 05:12:01;;;;;;;2.80;1.20;;;;;;;9.39;88.49;99635.16;5041793;28;20631;-75
2022/09/28 05:14:26;;;;;;;2.22;1.20;;;;;;;9.40;88.43;99634.31;5021910;28;20055;-75
2022/09/28 05:16:51;;;;;;;2.65;1.05;;;;;;;9.40;88.11;99632.63;5023167;28;20033;-75
2022/09/28 05:19:17;;;;;;;7.00;1.40;;;;;;;9.44;88.47;99637.78;5011497;28;20147;-75
2022/09/28 05:21:44;;;;;;;2.35;1.20;;;;;;;9.42;88.23;99639.47;5026021;28;20166;-74
2022/09/28 05:24:10;;;;;;;1.73;0.80;;;;;;;9.41;88.17;99636.06;5039667;28;20148;-74
2022/09/28 05:26:35;;;;;;;3.97;1.10;;;;;;;9.40;88.46;99640.31;5041996;28;20033;-75
2022/09/28 05:29:01;;;;;;;2.83;1.00;;;;;;;9.35;88.25;99641.97;5010219;28;20041;-75
2022/09/28 05:31:26;;;;;;;3.47;1.10;;;;;;;9.35;88.02;99638.53;5040457;28;20039;-75
2022/09/28 05:33:52;;;;;;;4.90;1.00;;;;;;;9.40;87.76;99634.31;5021234;28;20041;-75
2022/09/28 05:36:18;;;;;;;3.38;1.15;;;;;;;9.37;87.48;99641.97;5042869;28;20052;-75
2022/09/28 05:38:44;;;;;;;4.47;0.90;;;;;;;9.28;87.62;99640.16;5039688;28;20107;-75
2022/09/28 05:41:09;;;;;;;2.15;0.90;;;;;;;9.30;87.81;99628.22;5041256;28;20039;-75
2022/09/28 05:43:35;;;;;;;2.25;0.85;;;;;;;9.29;87.74;99639.31;5023748;28;20035;-75
2022/09/28 05:46:01;;;;;;;1.35;0.80;;;;;;;9.30;87.67;99641.03;5042526;28;20115;-74
2022/09/28 05:48:27;;;;;;;4.57;0.90;;;;;;;9.31;87.38;99645.31;5029699;28;20112;-74
2022/09/28 05:50:52;;;;;;;2.40;0.80;;;;;;;9.26;87.34;99635.84;5029629;28;20796;-74
2022/09/28 05:53:18;;;;;;;2.15;0.95;;;;;;;9.30;87.35;99646.16;5042018;28;20028;-74
2022/09/28 05:55:44;;;;;;;4.90;1.48;;;;;;;9.30;87.40;99642.75;5045965;28;20032;-74
2022/09/28 05:58:10;;;;;;;2.10;0.95;;;;;;;9.30;87.26;99642.75;5039634;28;20510;-74
2022/09/28 06:00:35;;;;;;;4.03;0.93;;;;;;;9.26;87.29;99646.09;5041818;28;20043;-74
2022/09/28 06:03:06;;;;;;;3.40;0.80;;;;;;;9.26;87.48;99646.97;5040092;28;20051;-74
2022/09/28 06:05:34;;;;;;;3.35;0.88;;;;;;;9.28;87.46;99644.41;5040697;28;20027;-74
2022/09/28 06:08:00;;;;;;;3.95;0.80;;;;;;;9.30;87.67;99650.44;5022607;28;20127;-74
2022/09/28 06:10:27;;;;;;;2.97;0.65;;;;;;;9.24;87.63;99650.34;5043772;28;20123;-74
2022/09/28 06:12:54;;;;;;;4.78;0.90;;;;;;;9.21;87.04;99653.72;5044635;28;20075;-74
2022/09/28 06:15:21;;;;;;;3.20;0.80;;;;;;;9.22;87.64;99649.44;5039032;28;20401;-74
2022/09/28 06:17:47;;;;;;;2.15;0.57;;;;;;;9.23;87.62;99656.31;5025969;28;20021;-74
2022/09/28 06:20:12;;;;;;;2.63;0.90;;;;;;;9.20;87.65;99659.69;5022264;28;20036;-74
2022/09/28 06:22:38;;;;;;;4.45;1.02;;;;;;;9.24;87.43;99658.91;5018120;28;20033;-74
2022/09/28 06:25:05;;;;;;;2.53;0.82;;;;;;;9.25;87.31;99665.75;4994811;28;20548;-74
2022/09/28 06:27:32;;;;;;;3.60;0.90;;;;;;;9.19;87.42;99665.66;5022207;28;20025;-74
2022/09/28 06:29:59;;;;;;;4.45;0.80;;;;;;;9.24;86.88;99665.75;5018658;28;20075;-73
2022/09/28 06:32:28;;;;;;;1.58;0.70;;;;;;;9.22;86.80;99665.72;5026510;28;20029;-73
2022/09/28 06:34:53;;;;;;;1.63;0.87;;;;;;;9.25;87.22;99662.34;5036173;28;20040;-73
2022/09/28 06:37:19;;;;;;;2.67;0.70;;;;;;;9.25;87.21;99662.34;5027588;28;20429;-73
2022/09/28 06:39:44;;;;;;;2.30;0.98;;;;;;;9.27;87.55;99663.19;5017732;28;20033;-73
2022/09/28 06:42:10;;;;;;;4.25;0.90;;;;;;;9.29;87.79;99667.53;5021869;28;20038;-73
2022/09/28 06:44:35;;;;;;;2.75;1.10;;;;;;;9.25;88.16;99670.88;5040386;28;20472;-73
2022/09/28 06:47:02;;;;;;;3.67;1.40;;;;;;;9.35;88.09;99683.00;5009869;28;20137;-73
2022/09/28 06:49:29;;;;;;;2.85;0.95;;;;;;;9.32;88.47;99684.66;5021739;28;20033;-73
2022/09/28 06:51:54;;;;;;;1.88;0.95;;;;;;;9.34;88.58;99681.28;5022598;28;20025;-73
2022/09/28 06:54:24;;;;;;;3.25;1.15;;;;;;;9.40;88.95;99685.63;5011785;28;20021;-73
2022/09/28 06:56:51;;;;;;;3.67;1.52;;;;;;;9.37;88.88;99680.47;5056133;28;20416;-72
2022/09/28 06:59:16;;;;;;;3.05;1.20;;;;;;;9.39;89.39;99687.31;5033272;28;20238;-72
2022/09/28 07:01:41;;;;;;;5.57;1.40;;;;;;;9.39;88.98;99681.34;5036392;28;20084;-73
2022/09/28 07:04:07;;;;;;;2.88;1.38;;;;;;;9.38;89.49;99690.72;5028157;28;20498;-73
2022/09/28 07:06:32;;;;;;;3.35;1.30;;;;;;;9.45;89.47;99690.81;5046685;28;20036;-73
2022/09/28 07:09:01;;;;;;;4.53;1.40;;;;;;;9.43;89.83;99690.81;5049761;28;20028;-73
2022/09/28 07:11:27;;;;;;;4.13;1.35;;;;;;;9.49;89.89;99696.03;5044186;28;20128;-73
2022/09/28 07:13:53;;;;;;;4.65;1.40;;;;;;;9.44;90.36;99684.81;5032099;28;20025;-73
2022/09/28 07:16:19;;;;;;;4.15;1.67;;;;;;;9.54;90.10;99696.94;5017192;28;20044;-73
2022/09/28 07:18:44;;;;;;;6.22;1.50;;;;;;;9.55;90.07;99687.56;5047800;28;20024;-73
2022/09/28 07:21:09;;;;;;;4.28;1.42;;;;;;;9.52;90.13;99683.22;5040482;28;20040;-73
2022/09/28 07:23:35;;;;;;;3.60;1.50;;;;;;;9.60;90.60;99694.47;5048450;28;20031;-73
2022/09/28 07:26:05;;;;;;;3.03;1.52;;;;;;;9.65;90.35;99708.22;5044789;28;20041;-72
2022/09/28 07:28:33;;;;;;;5.53;2.30;;;;;;;9.71;90.50;99704.00;5049790;28;20060;-73
2022/09/28 07:30:58;;;;;;;5.82;1.67;;;;;;;9.72;90.67;99704.03;5045554;28;20033;-73
2022/09/28 07:33:26;;;;;;;3.90;1.30;;;;;;;9.79;90.52;99710.97;5055938;28;20090;-73
2022/09/28 07:35:54;;;;;;;5.25;1.58;;;;;;;9.80;89.95;99699.00;5048827;28;20044;-73
2022/09/28 07:38:19;;;;;;;4.10;1.40;;;;;;;9.88;90.61;99710.22;5049072;28;20499;-73
2022/09/28 07:43:28;;;;;;;3.42;1.58;;;;;;;10.07;89.57;99713.84;5042025;28;20047;-73
2022/09/28 07:45:54;;;;;;;11.88;1.52;;;;;;;10.14;89.79;99708.81;5021317;28;20041;-74
2022/09/28 07:48:20;;;;;;;2.70;1.40;;;;;;;10.25;89.24;99710.66;5039607;28;20021;-73
2022/09/28 07:50:49;;;;;;;3.30;1.30;;;;;;;10.39;89.72;99715.13;5046949;28;20514;-74
2022/09/28 07:53:14;;;;;;;9.48;1.48;;;;;;;10.54;89.22;99714.41;5042756;28;20096;-74
2022/09/28 07:55:40;;;;;;;3.15;1.40;;;;;;;10.69;88.91;99713.72;5040418;28;20109;-74
2022/09/28 07:58:05;;;;;;;2.55;1.50;;;;;;;10.83;88.96;99721.53;5047279;28;20496;-74
2022/09/28 08:00:31;;;;;;;5.90;1.60;;;;;;;10.94;88.63;99717.34;5031328;28;20102;-73
2022/09/28 08:03:01;;;;;;;2.55;1.30;;;;;;;11.15;87.43;99719.22;5046006;28;20056;-74
2022/09/28 08:05:30;;;;;;;4.22;1.30;;;;;;;11.30;86.87;99714.19;5034914;28;20918;-74
2022/09/28 08:07:58;;;;;;;3.70;1.38;;;;;;;11.53;86.49;99717.78;5049078;28;20067;-74
2022/09/28 08:10:24;;;;;;;3.85;1.33;;;;;;;11.73;85.96;99717.88;5046040;28;20388;-74
2022/09/28 08:12:58;;;;;;;2.88;1.00;;;;;;;11.92;85.37;99723.16;5037291;28;20032;-74
2022/09/28 08:15:23;;;;;;;3.13;1.30;;;;;;;12.13;84.26;99720.63;5044245;28;20094;-74
2022/09/28 08:17:49;;;;;;;4.88;1.50;;;;;;;12.28;82.49;99728.44;5026179;28;20025;-74
2022/09/28 08:23:04;;;;;;;8.48;1.48;;;;;;;12.71;81.49;99728.53;5048259;28;20044;-74
2022/09/28 08:25:29;;;;;;;4.35;1.30;;;;;;;12.84;81.57;99732.81;5045972;28;20021;-74
2022/09/28 08:27:55;;;;;;;2.08;1.30;;;;;;;12.91;80.08;99733.69;5027165;28;20503;-75
2022/09/28 08:30:22;;;;;;;9.68;2.00;;;;;;;12.92;80.34;99742.28;5047687;28;20492;-74
2022/09/28 08:32:48;;;;;;;3.08;1.60;;;;;;;13.11;80.00;99741.47;5046759;28;20066;-74
2022/09/28 08:35:14;;;;;;;2.20;1.48;;;;;;;13.17;80.49;99740.59;5046205;28;20029;-74
2022/09/28 08:37:39;;;;;;;3.40;1.70;;;;;;;13.20;79.03;99750.91;5029917;28;20388;-74
2022/09/28 08:40:11;;;;;;;2.90;1.70;;;;;;;13.28;78.90;99747.47;5035464;28;20496;-74
2022/09/28 08:42:41;;;;;;;3.65;1.60;;;;;;;13.21;79.28;99743.19;5046435;28;20041;-74
2022/09/28 08:45:13;;;;;;;4.80;1.98;;;;;;;13.24;77.86;99758.69;5046549;28;20049;-74
2022/09/28 08:50:40;;;;;;;5.00;1.70;;;;;;;13.14;78.35;99755.19;5048801;28;20055;-74
2022/09/28 08:53:36;;;;;;;3.25;1.52;;;;;;;13.27;79.20;99763.84;5047353;28;20472;-73
2022/09/28 08:56:06;;;;;;;3.63;1.58;;;;;;;13.27;77.79;99763.84;5036616;28;20061;-74
2022/09/28 08:58:36;;;;;;;3.83;1.98;;;;;;;13.28;78.27;99754.38;5047297;28;20384;-74
2022/09/28 09:01:06;;;;;;;3.20;1.50;;;;;;;13.35;78.57;99751.81;5045531;28;20017;-74
2022/09/28 09:03:35;;;;;;;4.10;1.65;;;;;;;13.36;78.69;99760.41;5042674;28;20336;-73
2022/09/28 09:06:07;;;;;;;4.93;1.63;;;;;;;13.45;79.67;99775.00;5043140;28;20060;-74
2022/09/28 09:09:10;;;;;;;2.28;1.60;;;;;;;13.54;80.85;99775.88;5045521;28;20064;-73
2022/09/28 09:11:47;;;;;;;4.45;1.80;;;;;;;13.54;79.65;99778.47;5042559;28;20451;-74
2022/09/28 09:14:21;;;;;;;3.75;1.90;;;;;;;13.54;79.39;99778.47;5039839;28;20060;-73
2022/09/28 09:17:00;;;;;;;3.33;1.70;;;;;;;13.56;79.12;99770.69;5047763;28;20028;-74
2022/09/28 09:19:28;;;;;;;5.75;2.10;;;;;;;13.63;79.19;99783.59;5048234;28;20025;-74
2022/09/28 09:22:08;;;;;;;4.50;2.05;;;;;;;13.68;79.77;99779.28;5045568;28;20036;-74
2022/09/28 09:24:58;;;;;;;5.10;2.30;;;;;;;13.79;79.87;99781.84;5043398;28;20307;-73
2022/09/28 09:27:52;;;;;;;3.40;1.90;;;;;;;13.81;78.68;99785.28;5044913;28;20405;-74
2022/09/28 09:30:23;;;;;;;5.07;1.90;;;;;;;13.84;77.78;99792.19;5045110;28;20627;-74
2022/09/28 09:33:32;;;;;;;3.38;1.88;;;;;;;13.90;77.97;99785.28;5047653;28;20469;-74
2022/09/28 09:36:11;;;;;;;4.07;1.88;;;;;;;13.90;78.28;99785.28;5044831;28;20039;-74
2022/09/28 09:38:49;;;;;;;5.53;2.13;;;;;;;13.96;78.89;99789.56;5045068;28;20032;-74
2022/09/28 09:41:20;;;;;;;3.87;2.00;;;;;;;13.97;77.26;99793.00;5048568;28;20021;-74
2022/09/28 09:44:00;;;;;;;6.05;1.80;;;;;;;13.98;76.76;99794.72;5043188;28;20428;-74
2022/09/28 09:46:45;;;;;;;3.95;1.65;;;;;;;14.08;77.09;99802.47;5045086;28;20028;-74
2022/09/28 09:49:19;;;;;;;4.78;1.52;;;;;;;14.10;77.42;99799.84;5035979;28;20030;-74
2022/09/28 09:52:05;;;;;;;5.10;1.73;;;;;;;14.14;79.02;99799.84;5018697;28;20029;-74
2022/09/28 09:54:33;;;;;;;6.07;1.50;;;;;;;14.19;77.51;99799.81;5015691;28;20037;-74
2022/09/28 09:57:06;;;;;;;3.10;1.35;;;;;;;14.30;77.92;99792.88;5040982;28;20029;-74
2022/09/28 09:59:36;;;;;;;3.63;1.40;;;;;;;14.41;76.61;99791.09;5046295;28;20692;-74
2022/09/28 10:02:18;;;;;;;4.00;1.10;;;;;;;14.54;77.56;99794.53;5039938;28;20077;-74
2022/09/28 10:04:45;;;;;;;3.92;1.10;;;;;;;14.54;75.34;99791.09;5039530;28;20081;-74
2022/09/28 10:07:29;;;;;;;2.88;0.90;;;;;;;14.52;76.47;99790.25;5036920;28;20075;-73
2022/09/28 10:09:59;;;;;;;3.35;1.05;;;;;;;14.47;76.07;99796.28;5035051;28;20104;-74
2022/09/28 10:12:25;;;;;;;2.05;1.00;;;;;;;14.45;76.20;99802.31;5023848;28;20014;-74
2022/09/28 10:14:51;;;;;;;4.00;1.20;;;;;;;14.40;75.28;99804.91;5041765;28;20025;-74
2022/09/28 10:17:18;;;;;;;3.35;1.10;;;;;;;14.29;73.65;99809.25;5019033;28;20399;-75
2022/09/28 10:19:44;;;;;;;2.97;1.35;;;;;;;14.35;73.32;99804.06;5038204;28;20087;-75
2022/09/28 10:22:15;;;;;;;2.72;0.98;;;;;;;14.46;74.79;99794.56;5042891;28;20790;-75
2022/09/28 10:24:44;;;;;;;4.13;1.20;;;;;;;14.56;74.65;99789.34;5039793;28;20136;-75
2022/09/28 10:27:17;;;;;;;4.32;1.10;;;;;;;14.66;74.47;99791.88;5049705;28;20103;-74
2022/09/28 10:29:56;;;;;;;4.65;0.90;;;;;;;14.78;74.85;99793.53;5041773;28;20025;-74
2022/09/28 10:32:24;;;;;;;3.20;0.90;;;;;;;14.90;74.17;99793.44;5029668;28;20059;-74
2022/09/28 10:34:52;;;;;;;1.52;0.77;;;;;;;14.85;73.50;99787.44;5052662;28;20031;-74
2022/09/28 10:37:18;;;;;;;2.78;0.90;;;;;;;14.89;73.26;99793.47;5049298;28;20684;-75
2022/09/28 10:39:52;;;;;;;2.60;0.70;;;;;;;15.00;74.16;99789.94;5043041;28;20311;-75
2022/09/28 10:42:25;;;;;;;3.47;0.80;;;;;;;14.95;72.47;99791.69;5043023;28;20108;-75
2022/09/28 10:44:53;;;;;;;3.70;0.80;;;;;;;14.91;71.35;99787.41;5044847;28;20040;-75
2022/09/28 10:47:21;;;;;;;1.88;0.57;;;;;;;14.96;71.30;99785.66;5044349;28;20032;-75
2022/09/28 10:49:49;;;;;;;2.00;0.50;;;;;;;15.28;71.23;99790.56;5028090;28;20033;-75
2022/09/28 10:52:40;;;;;;;1.70;0.60;;;;;;;15.56;72.31;99785.16;5042666;28;20024;-75
2022/09/28 10:55:31;;;;;;;1.33;0.60;;;;;;;15.88;70.90;99786.59;5039653;28;20048;-74
2022/09/28 10:58:16;;;;;;;2.33;0.80;;;;;;;16.27;69.25;99791.34;5041896;28;20096;-75
2022/09/28 11:00:43;;;;;;;4.07;0.65;;;;;;;16.28;66.98;99784.41;5026167;28;20480;-75
2022/09/28 11:03:23;;;;;;;1.02;0.50;;;;;;;16.12;67.37;99793.25;5043168;28;20545;-75
2022/09/28 11:06:07;;;;;;;2.42;0.60;;;;;;;15.87;68.42;99784.88;5039675;28;20036;-75
2022/09/28 11:08:42;;;;;;;1.35;0.55;;;;;;;15.63;68.17;99786.84;5036093;28;20570;-75
2022/09/28 11:11:13;;;;;;;0.80;0.50;;;;;;;15.62;67.36;99789.44;5042626;28;20043;-75
2022/09/28 11:13:48;;;;;;;1.67;0.60;;;;;;;16.16;66.23;99780.22;5042467;28;20020;-74
2022/09/28 11:16:20;;;;;;;3.88;0.57;;;;;;;16.48;67.34;99776.38;5029103;28;20108;-75
2022/09/28 11:18:45;;;;;;;2.13;0.73;;;;;;;16.71;65.30;99781.28;5044060;28;20059;-74
2022/09/28 11:21:15;;;;;;;0.93;0.50;;;;;;;16.74;65.20;99789.88;5024201;28;20484;-75
2022/09/28 11:23:54;;;;;;;3.55;0.63;;;;;;;16.94;65.57;99775.75;5046721;28;20074;-74
2022/09/28 11:26:20;;;;;;;1.98;0.50;;;;;;;17.40;64.80;99774.13;5026400;28;20547;-74
2022/09/28 11:28:50;;;;;;;2.60;0.70;;;;;;;17.67;64.57;99785.78;5017394;28;20115;-74
2022/09/28 11:31:22;;;;;;;5.25;0.63;;;;;;;17.58;62.81;99780.72;5029844;28;20107;-75
2022/09/28 11:33:48;;;;;;;1.65;0.40;;;;;;;17.46;62.30;99774.91;5037702;28;20415;-75
2022/09/28 11:36:16;;;;;;;2.10;0.38;;;;;;;17.50;61.06;99785.22;5009530;28;20024;-75
2022/09/28 11:39:03;;;;;;;1.83;0.40;;;;;;;17.65;62.24;99789.28;5043500;28;20021;-76
2022/09/28 11:41:58;;;;;;;2.58;0.50;;;;;;;17.76;64.44;99784.78;5046919;28;20037;-76
2022/09/28 11:44:43;;;;;;;1.65;0.52;;;;;;;17.53;63.52;99789.50;5038813;28;20243;-76
2022/09/28 11:47:55;;;;;;;5.45;0.88;;;;;;;17.52;65.25;99774.78;5046599;28;20017;-75
2022/09/28 11:50:40;;;;;;;2.72;0.50;;;;;;;17.67;64.90;99780.59;4970044;28;20506;-75
2022/09/28 11:53:30;;;;;;;4.22;0.60;;;;;;;17.96;64.62;99771.41;5043064;28;20029;-75
2022/09/28 11:56:04;;;;;;;3.13;0.50;;;;;;;18.23;61.85;99770.84;5049090;28;20434;-75
2022/09/28 11:58:34;;;;;;;4.00;0.60;;;;;;;18.38;60.31;99763.59;5024562;28;20025;-75
2022/09/28 12:01:22;;;;;;;5.93;0.82;;;;;;;18.71;62.06;99768.13;5037532;28;20574;-76
2022/09/28 12:03:56;;;;;;;2.80;0.70;;;;;;;18.21;59.35;99762.22;5036675;28;20028;-76
2022/09/28 12:06:32;;;;;;;2.58;0.70;;;;;;;17.81;60.21;99771.69;5044747;28;20064;-75